createdAt,value
2023-01-25T00:00:15.703Z,27.87
2023-01-25T00:03:38.814Z,27.35
2023-01-25T00:06:41.368Z,27.80
2023-01-25T00:09:44.526Z,26.40
2023-01-25T00:12:47.631Z,25.27
2023-01-25T00:15:50.931Z,26.20
2023-01-25T00:18:53.461Z,26.17
2023-01-25T00:21:56.549Z,25.75
2023-01-25T00:24:59.155Z,24.90
2023-01-25T00:28:02.328Z,26.08
2023-01-25T00:31:07.374Z,24.77
2023-01-25T00:34:25.801Z,23.33
2023-01-25T00:37:38.980Z,23.12
2023-01-25T00:43:44.546Z,22.65
2023-01-25T00:46:48.296Z,23.42
2023-01-25T00:52:54.095Z,23.27
2023-01-25T00:55:57.777Z,25.15
2023-01-25T00:59:00.927Z,23.52
2023-01-25T01:02:04.517Z,26.43
2023-01-25T01:05:08.450Z,24.58
2023-01-25T01:11:14.854Z,23.17
2023-01-25T01:14:17.476Z,25.40
2023-01-25T01:17:20.623Z,25.37
2023-01-25T01:20:23.480Z,25.83
2023-01-25T01:23:31.746Z,26.42
2023-01-25T01:26:34.451Z,24.65
2023-01-25T01:29:37.777Z,26.37
2023-01-25T01:32:40.607Z,25.65
2023-01-25T01:38:50.330Z,24.85
2023-01-25T01:41:53.480Z,25.65
2023-01-25T01:44:56.271Z,24.50
2023-01-25T01:51:24.898Z,25.05
2023-01-25T01:54:36.402Z,24.33
2023-01-25T01:57:44.960Z,25.48
2023-01-25T02:00:48.341Z,26.65
2023-01-25T02:03:51.905Z,25.50
2023-01-25T02:07:03.440Z,23.23
2023-01-25T02:10:09.632Z,20.52
2023-01-25T02:13:13.087Z,20.45
2023-01-25T02:16:18.864Z,20.30
2023-01-25T02:19:48.136Z,20.83
2023-01-25T02:23:01.760Z,20.95
2023-01-25T02:26:07.054Z,21.37
2023-01-25T02:29:10.827Z,23.73
2023-01-25T02:32:15.169Z,22.52
2023-01-25T02:35:23.912Z,23.55
2023-01-25T02:38:35.683Z,23.30
2023-01-25T02:41:41.100Z,25.10
2023-01-25T02:44:44.803Z,26.23
2023-01-25T02:47:48.727Z,28.05
2023-01-25T02:50:51.935Z,27.60
2023-01-25T02:53:55.023Z,25.95
2023-01-25T02:56:58.088Z,26.37
2023-01-25T03:00:01.198Z,26.92
2023-01-25T03:06:08.112Z,25.80
2023-01-25T03:09:12.202Z,27.85
2023-01-25T03:12:15.372Z,28.67
2023-01-25T03:18:22.380Z,29.60
2023-01-25T03:21:25.329Z,27.15
2023-01-25T03:24:28.532Z,30.17
2023-01-25T03:27:31.893Z,29.55
2023-01-25T03:30:36.115Z,30.27
2023-01-25T03:33:39.184Z,27.45
2023-01-25T03:36:43.191Z,29.23
2023-01-25T03:39:46.036Z,27.55
2023-01-25T03:42:48.998Z,28.42
2023-01-25T03:45:57.844Z,26.85
2023-01-25T03:49:00.740Z,26.87
2023-01-25T03:52:04.499Z,27.52
2023-01-25T03:55:08.523Z,25.65
2023-01-25T03:58:12.312Z,25.62
2023-01-25T04:04:19.016Z,25.70
2023-01-25T04:07:21.766Z,23.85
2023-01-25T04:10:24.902Z,25.20
2023-01-25T04:13:27.959Z,25.03
2023-01-25T04:16:31.946Z,24.87
2023-01-25T04:19:35.977Z,25.90
2023-01-25T04:22:39.257Z,25.08
2023-01-25T04:25:42.544Z,25.25
2023-01-25T04:28:46.090Z,25.58
2023-01-25T04:31:49.504Z,25.35
2023-01-25T04:34:52.746Z,25.85
2023-01-25T04:37:58.450Z,24.92
2023-01-25T04:41:01.767Z,25.50
2023-01-25T04:44:04.352Z,27.65
2023-01-25T04:47:07.607Z,26.12
2023-01-25T04:50:11.162Z,26.35
2023-01-25T04:53:14.263Z,25.42
2023-01-25T04:56:17.098Z,24.30
2023-01-25T05:02:23.471Z,23.10
2023-01-25T05:05:26.731Z,23.98
2023-01-25T05:08:29.679Z,23.87
2023-01-25T05:11:34.655Z,23.42
2023-01-25T05:14:38.907Z,22.70
2023-01-25T05:17:42.369Z,22.58
2023-01-25T05:23:48.896Z,21.87
2023-01-25T05:27:05.626Z,22.45
2023-01-25T05:30:10.603Z,22.10
2023-01-25T05:33:13.425Z,21.92
2023-01-25T05:36:16.607Z,21.12
2023-01-25T05:39:19.242Z,22.40
2023-01-25T05:42:23.113Z,22.40
2023-01-25T05:45:26.416Z,21.67
2023-01-25T05:48:30.502Z,22.80
2023-01-25T05:51:33.832Z,19.87
2023-01-25T05:54:37.507Z,19.55
2023-01-25T05:57:40.525Z,19.67
2023-01-25T06:03:49.337Z,19.67
2023-01-25T06:06:53.081Z,18.73
2023-01-25T06:09:56.403Z,20.00
2023-01-25T06:13:00.001Z,19.67
2023-01-25T06:16:03.274Z,17.83
2023-01-25T06:19:13.532Z,18.90
2023-01-25T06:22:16.809Z,19.85
2023-01-25T06:25:19.672Z,17.95
2023-01-25T06:28:22.579Z,19.48
2023-01-25T06:31:25.807Z,18.62
2023-01-25T06:34:29.092Z,19.02
2023-01-25T06:37:33.052Z,20.02
2023-01-25T06:40:35.820Z,18.73
2023-01-25T06:43:39.369Z,18.85
2023-01-25T06:49:44.763Z,19.25
2023-01-25T06:52:57.061Z,20.10
2023-01-25T06:56:00.954Z,19.17
2023-01-25T06:59:04.808Z,20.52
2023-01-25T07:02:07.848Z,20.05
2023-01-25T07:05:11.463Z,19.25
2023-01-25T07:11:19.138Z,19.05
2023-01-25T07:14:22.182Z,17.85
2023-01-25T07:17:25.042Z,18.33
2023-01-25T07:20:27.853Z,19.87
2023-01-25T07:23:32.632Z,19.08
2023-01-25T07:26:35.514Z,17.90
2023-01-25T07:29:38.348Z,19.15
2023-01-25T07:32:41.112Z,21.35
2023-01-25T07:35:44.010Z,28.10
2023-01-25T07:38:47.692Z,26.87
2023-01-25T07:41:50.710Z,23.75
2023-01-25T07:44:53.874Z,23.05
2023-01-25T07:48:04.259Z,22.48
2023-01-25T07:51:12.952Z,23.80
2023-01-25T07:54:15.823Z,22.20
2023-01-25T07:57:20.378Z,22.13
2023-01-25T08:00:24.849Z,22.37
2023-01-25T08:03:28.205Z,22.45
2023-01-25T08:06:35.927Z,23.10
2023-01-25T08:09:39.813Z,21.05
2023-01-25T08:12:46.380Z,21.10
2023-01-25T08:15:56.284Z,25.92
2023-01-25T08:19:00.885Z,28.00
2023-01-25T08:22:04.271Z,22.55
2023-01-25T08:25:07.708Z,21.37
2023-01-25T08:28:11.098Z,22.48
2023-01-25T08:31:19.622Z,20.40
2023-01-25T08:34:23.091Z,20.27
2023-01-25T08:37:29.603Z,18.77
2023-01-25T08:40:33.777Z,19.50
2023-01-25T08:43:38.700Z,18.80
2023-01-25T08:46:41.921Z,18.10
2023-01-25T08:49:44.733Z,16.03
2023-01-25T08:52:47.861Z,14.50
2023-01-25T08:55:50.523Z,14.83
2023-01-25T08:58:54.025Z,14.57
2023-01-25T09:01:56.580Z,13.38
2023-01-25T09:04:59.712Z,25.02
2023-01-25T09:08:02.855Z,18.42
2023-01-25T09:11:08.358Z,16.12
2023-01-25T09:14:10.928Z,16.85
2023-01-25T09:17:14.045Z,16.17
2023-01-25T09:20:17.243Z,18.03
2023-01-25T09:23:22.914Z,16.40
2023-01-25T09:26:25.666Z,16.08
2023-01-25T09:29:28.854Z,14.55
2023-01-25T09:32:31.517Z,14.23
2023-01-25T09:35:35.684Z,16.12
2023-01-25T09:38:41.126Z,15.27
2023-01-25T09:42:15.687Z,15.80
2023-01-25T09:45:34.730Z,16.10
2023-01-25T09:48:53.908Z,17.02
2023-01-25T09:52:08.164Z,17.23
2023-01-25T09:55:15.009Z,17.35
2023-01-25T09:58:22.153Z,16.45
2023-01-25T10:01:46.901Z,16.80
2023-01-25T10:04:54.277Z,15.82
2023-01-25T10:08:16.412Z,17.48
2023-01-25T10:11:26.951Z,15.82
2023-01-25T10:14:35.619Z,15.85
2023-01-25T10:17:40.952Z,16.20
2023-01-25T10:20:56.476Z,15.93
2023-01-25T10:24:14.161Z,15.80
2023-01-25T10:27:22.871Z,15.35
2023-01-25T10:30:41.711Z,15.55
2023-01-25T10:33:47.179Z,17.08
2023-01-25T10:37:14.810Z,16.00
2023-01-25T10:40:26.977Z,17.77
2023-01-25T10:43:30.210Z,15.38
2023-01-25T10:46:33.673Z,17.35
2023-01-25T10:52:58.648Z,15.75
2023-01-25T10:56:19.376Z,15.82
2023-01-25T10:59:27.306Z,16.55
2023-01-25T11:02:36.336Z,15.38
2023-01-25T11:05:41.859Z,15.27
2023-01-25T11:08:44.786Z,14.95
2023-01-25T11:12:02.337Z,15.23
2023-01-25T11:15:24.787Z,14.60
2023-01-25T11:18:36.009Z,14.57
2023-01-25T11:21:59.953Z,14.20
2023-01-25T11:25:28.040Z,14.30
2023-01-25T11:28:30.902Z,13.75
2023-01-25T11:31:35.167Z,14.75
2023-01-25T11:34:38.108Z,14.70
2023-01-25T11:38:02.544Z,16.27
2023-01-25T11:41:25.175Z,14.48
2023-01-25T11:45:05.310Z,15.32
2023-01-25T11:48:47.859Z,14.68
2023-01-25T11:52:00.025Z,15.05
2023-01-25T11:55:18.118Z,15.45
2023-01-25T11:58:40.498Z,14.95
2023-01-25T12:02:36.062Z,22.37
2023-01-25T12:06:50.953Z,16.92
2023-01-25T12:10:09.372Z,15.20
2023-01-25T12:13:36.629Z,14.90
2023-01-25T12:17:07.687Z,15.43
2023-01-25T12:20:31.516Z,14.18
2023-01-25T12:23:57.747Z,14.82
2023-01-25T12:27:29.652Z,15.07
2023-01-25T12:30:55.042Z,14.38
2023-01-25T12:34:05.037Z,14.68
2023-01-25T12:37:24.714Z,14.65
2023-01-25T12:40:30.195Z,15.07
2023-01-25T12:43:45.606Z,15.35
2023-01-25T12:47:05.409Z,16.95
2023-01-25T12:50:47.483Z,15.90
2023-01-25T12:53:53.261Z,16.40
2023-01-25T12:57:02.531Z,15.27
2023-01-25T13:00:45.884Z,14.98
2023-01-25T13:04:11.065Z,15.55
2023-01-25T13:07:25.468Z,15.82
2023-01-25T13:13:38.955Z,14.90
2023-01-25T13:17:18.453Z,14.87
2023-01-25T13:21:00.177Z,15.52
2023-01-25T13:24:16.845Z,14.82
2023-01-25T13:27:26.535Z,14.68
2023-01-25T13:30:34.682Z,14.20
2023-01-25T13:33:40.182Z,22.35
2023-01-25T13:37:05.985Z,20.05
2023-01-25T13:40:35.513Z,14.57
2023-01-25T13:43:46.405Z,14.43
2023-01-25T13:46:49.464Z,13.90
2023-01-25T13:50:06.419Z,15.00
2023-01-25T13:53:17.813Z,13.38
2023-01-25T13:56:47.935Z,14.30
2023-01-25T14:00:11.190Z,14.82
2023-01-25T14:03:37.430Z,13.93
2023-01-25T14:06:41.516Z,14.27
2023-01-25T14:09:46.384Z,13.50
2023-01-25T14:12:51.076Z,14.00
2023-01-25T14:15:59.871Z,13.25
2023-01-25T14:19:22.602Z,13.32
2023-01-25T14:22:28.152Z,13.95
2023-01-25T14:25:33.386Z,13.52
2023-01-25T14:28:36.416Z,14.32
2023-01-25T14:31:40.271Z,13.90
2023-01-25T14:34:45.607Z,14.68
2023-01-25T14:37:48.645Z,15.30
2023-01-25T14:40:58.423Z,15.35
2023-01-25T14:44:10.642Z,13.88
2023-01-25T14:47:23.458Z,14.20
2023-01-25T14:50:37.906Z,14.57
2023-01-25T14:53:45.688Z,15.75
2023-01-25T14:56:51.837Z,14.65
2023-01-25T14:59:56.246Z,15.35
2023-01-25T15:03:05.734Z,14.20
2023-01-25T15:06:08.930Z,15.43
2023-01-25T15:10:01.195Z,15.13
2023-01-25T15:13:14.233Z,15.10
2023-01-25T15:16:18.873Z,15.18
2023-01-25T15:19:30.061Z,14.50
2023-01-25T15:22:35.036Z,14.20
2023-01-25T15:25:49.961Z,14.45
2023-01-25T15:28:57.292Z,14.82
2023-01-25T15:32:02.054Z,14.95
2023-01-25T15:35:21.851Z,15.63
2023-01-25T15:38:25.689Z,15.27
2023-01-25T15:41:28.721Z,15.55
2023-01-25T15:44:33.336Z,16.25
2023-01-25T15:47:37.413Z,16.05
2023-01-25T15:50:41.361Z,15.07
2023-01-25T15:53:49.033Z,14.55
2023-01-25T15:56:56.129Z,15.15
2023-01-25T16:00:01.844Z,15.35
2023-01-25T16:03:07.871Z,15.73
2023-01-25T16:06:34.142Z,16.37
2023-01-25T16:09:36.704Z,18.65
2023-01-25T16:12:39.823Z,17.05
2023-01-25T16:15:42.539Z,15.27
2023-01-25T16:18:46.218Z,15.88
2023-01-25T16:21:49.657Z,16.23
2023-01-25T16:24:53.083Z,16.58
2023-01-25T16:27:55.723Z,16.62
2023-01-25T16:30:59.117Z,17.23
2023-01-25T16:34:01.949Z,16.23
2023-01-25T16:40:26.148Z,16.40
2023-01-25T16:43:42.094Z,16.12
2023-01-25T16:46:45.410Z,16.50
2023-01-25T16:52:51.747Z,15.45
2023-01-25T16:55:54.869Z,15.13
2023-01-25T16:59:01.383Z,15.03
2023-01-25T17:02:04.637Z,14.02
2023-01-25T17:05:09.305Z,13.35
2023-01-25T17:08:12.537Z,14.10
2023-01-25T17:11:15.977Z,15.23
2023-01-25T17:14:20.593Z,14.07
2023-01-25T17:17:24.100Z,14.95
2023-01-25T17:20:27.293Z,16.05
2023-01-25T17:23:32.166Z,13.83
2023-01-25T17:26:35.661Z,14.32
2023-01-25T17:29:38.311Z,14.95
2023-01-25T17:32:41.522Z,15.73
2023-01-25T17:35:44.226Z,16.63
2023-01-25T17:38:47.887Z,14.90
2023-01-25T17:41:51.474Z,15.90
2023-01-25T17:44:54.634Z,16.33
2023-01-25T17:47:57.317Z,15.90
2023-01-25T17:51:02.123Z,15.80
2023-01-25T17:54:05.806Z,15.90
2023-01-25T17:57:10.504Z,16.00
2023-01-25T18:00:14.087Z,17.42
2023-01-25T18:03:16.917Z,15.45
2023-01-25T18:06:24.569Z,18.65
2023-01-25T18:09:27.593Z,16.42
2023-01-25T18:12:30.458Z,14.75
2023-01-25T18:15:33.821Z,16.02
2023-01-25T18:21:42.039Z,15.65
2023-01-25T18:24:45.969Z,15.82
2023-01-25T18:27:49.237Z,17.00
2023-01-25T18:30:57.391Z,17.70
2023-01-25T18:34:00.518Z,16.40
2023-01-25T18:37:17.829Z,14.75
2023-01-25T18:40:20.729Z,16.30
2023-01-25T18:43:23.731Z,17.35
2023-01-25T18:46:27.927Z,17.48
2023-01-25T18:49:30.849Z,17.60
2023-01-25T18:52:35.254Z,18.33
2023-01-25T18:55:38.492Z,17.52
2023-01-25T18:58:42.174Z,19.65
2023-01-25T19:01:45.140Z,19.87
2023-01-25T19:04:48.403Z,19.90
2023-01-25T19:07:52.615Z,18.65
2023-01-25T19:11:02.005Z,18.77
2023-01-25T19:14:05.808Z,19.62
2023-01-25T19:17:11.469Z,19.30
2023-01-25T19:20:14.398Z,19.00
2023-01-25T19:23:17.218Z,17.12
2023-01-25T19:26:22.104Z,17.67
2023-01-25T19:29:25.005Z,13.73
2023-01-25T19:32:29.455Z,13.45
2023-01-25T19:35:32.320Z,13.65
2023-01-25T19:38:39.017Z,16.25
2023-01-25T19:41:41.972Z,15.98
2023-01-25T19:44:44.879Z,16.12
2023-01-25T19:47:47.739Z,17.73
2023-01-25T19:50:50.690Z,16.27
2023-01-25T19:54:05.582Z,16.85
2023-01-25T19:57:08.527Z,16.67
2023-01-25T20:00:12.009Z,19.17
2023-01-25T20:03:16.670Z,17.70
2023-01-25T20:06:21.158Z,17.85
2023-01-25T20:09:28.567Z,16.67
2023-01-25T20:12:31.565Z,17.42
2023-01-25T20:15:34.508Z,16.65
2023-01-25T20:18:37.689Z,15.35
2023-01-25T20:21:40.924Z,16.73
2023-01-25T20:24:43.790Z,16.85
2023-01-25T20:27:46.713Z,16.00
2023-01-25T20:30:49.620Z,14.32
2023-01-25T20:33:55.274Z,14.25
2023-01-25T20:37:00.324Z,14.77
2023-01-25T20:40:03.734Z,15.43
2023-01-25T20:43:06.613Z,14.68
2023-01-25T20:46:09.436Z,14.52
2023-01-25T20:49:18.086Z,15.48
2023-01-25T20:52:20.917Z,13.68
2023-01-25T20:55:23.750Z,13.88
2023-01-25T20:58:27.660Z,13.82
2023-01-25T21:01:38.804Z,14.77
2023-01-25T21:04:42.075Z,13.18
2023-01-25T21:07:45.119Z,14.43
2023-01-25T21:10:56.654Z,14.18
2023-01-25T21:13:59.687Z,14.80
2023-01-25T21:17:02.581Z,14.90
2023-01-25T21:20:07.273Z,16.15
2023-01-25T21:23:10.411Z,13.95
2023-01-25T21:26:15.718Z,14.63
2023-01-25T21:29:21.122Z,14.23
2023-01-25T21:32:25.567Z,13.95
2023-01-25T21:35:29.570Z,12.73
2023-01-25T21:38:32.756Z,14.38
2023-01-25T21:41:35.663Z,12.93
2023-01-25T21:44:57.252Z,12.88
2023-01-25T21:48:00.240Z,14.20
2023-01-25T21:51:21.552Z,13.77
2023-01-25T21:54:30.820Z,14.15
2023-01-25T21:57:33.860Z,13.02
2023-01-25T22:00:37.207Z,14.82
2023-01-25T22:03:40.360Z,12.82
2023-01-25T22:06:43.471Z,13.77
2023-01-25T22:09:49.084Z,14.20
2023-01-25T22:12:51.712Z,14.68
2023-01-25T22:15:58.880Z,15.27
2023-01-25T22:19:01.496Z,16.05
2023-01-25T22:22:04.616Z,16.48
2023-01-25T22:25:07.375Z,15.23
2023-01-25T22:28:14.417Z,15.98
2023-01-25T22:31:19.252Z,15.73
2023-01-25T22:34:22.581Z,15.70
2023-01-25T22:37:25.213Z,15.43
2023-01-25T22:43:32.790Z,16.15
2023-01-25T22:46:37.143Z,15.38
2023-01-25T22:49:39.902Z,15.52
2023-01-25T22:52:43.001Z,16.27
2023-01-25T22:55:45.579Z,17.73
2023-01-25T22:58:49.405Z,15.65
2023-01-25T23:01:52.041Z,15.05
2023-01-25T23:04:55.471Z,14.75
2023-01-25T23:07:59.268Z,14.85
2023-01-25T23:11:13.831Z,15.93
2023-01-25T23:14:35.291Z,16.30
2023-01-25T23:18:01.053Z,17.33
2023-01-25T23:21:04.894Z,16.50
2023-01-25T23:24:09.288Z,16.05
2023-01-25T23:27:12.724Z,17.95
2023-01-25T23:30:16.752Z,17.70
2023-01-25T23:36:27.228Z,19.15
2023-01-25T23:39:30.103Z,17.77
2023-01-25T23:42:33.202Z,20.90
2023-01-25T23:45:35.779Z,21.10
2023-01-25T23:48:38.949Z,20.08
2023-01-25T23:51:41.809Z,20.03
2023-01-25T23:54:44.985Z,21.27
2023-01-25T23:57:47.946Z,19.83
